Terminal Aerodrome Forecast
Issued by NWS

Home | Current Version | Previous Version | Text Only | Print | Product List | Glossary On
Versions: 1 2 3 4 5 6 7 8 9 10 11 12 13 14 15 16 17 18 19 20 21 22 23 24 25 26 27 28 29
000
FTUS46 KSEW 290541
TAFSEA
TAF
KSEA 290541Z 2906/3012 35004KT P6SM BKN100 OVC150
     FM291300 15008KT P6SM BKN060 OVC100
     FM291500 17012KT P6SM -RA BKN020 OVC040
     FM291800 21018G28KT P6SM -RA BKN020 OVC040
     FM292100 21018G28KT P6SM -SHRA SCT025 BKN035 OVC050
     FM300100 19012KT P6SM -RA BKN025 OVC040=

USA.gov is the U.S. government's official web portal to all federal, state and local government web resources and services.